Time;durP1;ratioP1;P1;durP2;ratioP2;P2;SDS_P1;SDS_P2;PMS_P1;PMS_P2;Temp;Humidity;BMP_temperature;BMP_pressure;BME280_temperature;BME280_humidity;BME280_pressure;Samples;Min_cycle;Max_cycle;Signal;HPM_P1;HPM_P2
2023/05/01 00:00:20;;;;;;;9.30;7.80;;;;;;;;;;5080073;28;20484;-65
2023/05/01 00:02:46;;;;;;;9.30;8.30;;;;;;;;;;5080494;28;20448;-65
2023/05/01 00:05:13;;;;;;;10.37;7.57;;;;;;;;;;5078731;28;20511;-66
2023/05/01 00:07:39;;;;;;;10.80;8.00;;;;;;;;;;5080146;28;20455;-65
2023/05/01 00:10:06;;;;;;;17.50;9.40;;;;;;;;;;5081975;28;20455;-65
2023/05/01 00:12:32;;;;;;;12.63;7.60;;;;;;;;;;5083634;28;20490;-66
2023/05/01 00:15:00;;;;;;;10.50;8.50;;;;;;;;;;5088341;28;20522;-66
2023/05/01 00:17:27;;;;;;;12.80;8.10;;;;;;;;;;5085692;28;20529;-66
2023/05/01 00:19:53;;;;;;;12.57;8.93;;;;;;;;;;5084781;28;20466;-66
2023/05/01 00:22:20;;;;;;;10.13;7.80;;;;;;;;;;5084423;28;20475;-66
2023/05/01 00:24:46;;;;;;;14.57;8.97;;;;;;;;;;5090388;28;20777;-66
2023/05/01 00:27:13;;;;;;;15.20;8.03;;;;;;;;;;5083983;28;20475;-66
2023/05/01 00:29:40;;;;;;;10.73;7.70;;;;;;;;;;5084319;28;20497;-66
2023/05/01 00:32:09;;;;;;;13.07;7.57;;;;;;;;;;5083508;28;20483;-66
2023/05/01 00:34:35;;;;;;;10.80;7.50;;;;;;;;;;5088133;28;20471;-66
2023/05/01 00:37:01;;;;;;;14.63;8.07;;;;;;;;;;5083445;28;20472;-65
2023/05/01 00:39:28;;;;;;;9.83;7.60;;;;;;;;;;5084073;28;20460;-66
2023/05/01 00:41:55;;;;;;;12.43;8.17;;;;;;;;;;5082557;28;20479;-66
2023/05/01 00:44:21;;;;;;;13.93;8.30;;;;;;;;;;5084046;28;20439;-66
2023/05/01 00:46:47;;;;;;;13.80;8.60;;;;;;;;;;5082972;28;20740;-66
2023/05/01 00:49:16;;;;;;;15.60;8.83;;;;;;;;;;5082514;28;20486;-65
2023/05/01 00:51:42;;;;;;;15.23;8.53;;;;;;;;;;5085612;28;20522;-65
2023/05/01 00:54:09;;;;;;;10.83;8.57;;;;;;;;;;5088078;28;20512;-65
2023/05/01 00:56:36;;;;;;;12.13;7.30;;;;;;;;;;5083436;28;20522;-64
2023/05/01 00:59:02;;;;;;;11.80;6.97;;;;;;;;;;5086087;28;20459;-65
2023/05/01 01:01:29;;;;;;;10.00;6.60;;;;;;;;;;5084165;28;20534;-65
2023/05/01 01:03:55;;;;;;;8.13;6.43;;;;;;;;;;5089220;28;20493;-65
2023/05/01 01:06:30;;;;;;;8.33;6.13;;;;;;;;;;5082034;28;20495;-65
2023/05/01 01:09:00;;;;;;;9.47;7.50;;;;;;;;;;5083142;28;20567;-65
2023/05/01 01:11:30;;;;;;;11.60;7.20;;;;;;;;;;5082004;28;20538;-67
2023/05/01 01:13:59;;;;;;;11.40;7.23;;;;;;;;;;5090350;28;21565;-65
2023/05/01 01:16:29;;;;;;;10.10;7.40;;;;;;;;;;5091226;28;21033;-65
2023/05/01 01:18:59;;;;;;;8.27;7.20;;;;;;;;;;5082703;28;20526;-65
2023/05/01 01:21:31;;;;;;;10.20;7.60;;;;;;;;;;5083177;28;20485;-65
2023/05/01 01:24:10;;;;;;;11.50;6.50;;;;;;;;;;5084074;28;20462;-66
2023/05/01 01:26:52;;;;;;;9.47;6.10;;;;;;;;;;5083422;28;20491;-66
2023/05/01 01:29:39;;;;;;;12.33;7.40;;;;;;;;;;5083155;28;20444;-65
2023/05/01 01:32:11;;;;;;;10.37;7.20;;;;;;;;;;5081954;28;20511;-65
2023/05/01 01:34:42;;;;;;;11.70;7.20;;;;;;;;;;5087613;28;20476;-65
2023/05/01 01:37:12;;;;;;;16.10;8.07;;;;;;;;;;5081733;28;20483;-65
2023/05/01 01:39:43;;;;;;;15.10;7.23;;;;;;;;;;5082258;28;20486;-65
2023/05/01 01:42:12;;;;;;;8.70;6.70;;;;;;;;;;5084884;28;20550;-65
2023/05/01 01:44:39;;;;;;;15.20;7.63;;;;;;;;;;5087671;28;20487;-65
2023/05/01 01:47:08;;;;;;;11.97;7.10;;;;;;;;;;5086637;28;20510;-64
2023/05/01 01:49:37;;;;;;;13.73;7.50;;;;;;;;;;5082827;28;20456;-65
2023/05/01 01:52:06;;;;;;;16.00;6.70;;;;;;;;;;5082623;28;20599;-65
2023/05/01 01:54:35;;;;;;;7.93;6.17;;;;;;;;;;5083383;28;20480;-65
2023/05/01 01:57:03;;;;;;;14.43;7.40;;;;;;;;;;5081596;28;20483;-65
2023/05/01 01:59:31;;;;;;;10.30;6.83;;;;;;;;;;5082560;28;20480;-65
2023/05/01 02:01:58;;;;;;;11.50;7.20;;;;;;;;;;5081914;28;20490;-65
2023/05/01 02:04:25;;;;;;;8.03;6.77;;;;;;;;;;5084597;28;20475;-64
2023/05/01 02:06:52;;;;;;;8.90;6.17;;;;;;;;;;5082461;28;20599;-65
2023/05/01 02:09:21;;;;;;;11.10;6.67;;;;;;;;;;5082858;28;20518;-66
2023/05/01 02:11:49;;;;;;;9.93;6.50;;;;;;;;;;5077133;28;20551;-64
2023/05/01 02:14:18;;;;;;;13.63;7.60;;;;;;;;;;5078161;28;20713;-65
2023/05/01 02:16:45;;;;;;;13.90;7.50;;;;;;;;;;5085694;28;20503;-66
2023/05/01 02:19:13;;;;;;;9.40;7.10;;;;;;;;;;5084510;28;20459;-66
2023/05/01 02:21:39;;;;;;;9.63;7.57;;;;;;;;;;5081728;28;20483;-66
2023/05/01 02:24:06;;;;;;;8.30;6.70;;;;;;;;;;5081938;28;20478;-66
2023/05/01 02:26:38;;;;;;;9.97;6.97;;;;;;;;;;5082553;28;20476;-66
2023/05/01 02:29:06;;;;;;;14.90;7.67;;;;;;;;;;5081157;28;20488;-66
2023/05/01 02:31:32;;;;;;;10.00;5.90;;;;;;;;;;5081118;28;20476;-66
2023/05/01 02:33:59;;;;;;;8.87;6.60;;;;;;;;;;5085595;28;20516;-66
2023/05/01 02:36:26;;;;;;;13.57;7.47;;;;;;;;;;5085139;28;20486;-66
2023/05/01 02:38:53;;;;;;;8.30;6.97;;;;;;;;;;5082153;28;20448;-66
2023/05/01 02:41:21;;;;;;;7.10;5.77;;;;;;;;;;5080257;28;20495;-66
2023/05/01 02:43:50;;;;;;;8.57;5.50;;;;;;;;;;5081353;28;20462;-66
2023/05/01 02:46:17;;;;;;;10.17;5.47;;;;;;;;;;5080021;28;20571;-66
2023/05/01 02:48:44;;;;;;;8.20;6.50;;;;;;;;;;5080169;28;20476;-66
2023/05/01 02:51:10;;;;;;;8.47;6.07;;;;;;;;;;5080573;28;20623;-66
2023/05/01 02:53:38;;;;;;;9.33;5.90;;;;;;;;;;5082527;28;20834;-66
2023/05/01 02:56:06;;;;;;;7.73;5.83;;;;;;;;;;5080556;28;20995;-66
2023/05/01 02:58:34;;;;;;;8.43;6.00;;;;;;;;;;5084287;28;20455;-66
2023/05/01 03:01:02;;;;;;;7.80;5.90;;;;;;;;;;5082188;28;20559;-66
2023/05/01 03:03:28;;;;;;;9.63;6.20;;;;;;;;;;5081280;28;20519;-66
2023/05/01 03:05:56;;;;;;;12.57;5.70;;;;;;;;;;5082230;28;20518;-67
2023/05/01 03:08:22;;;;;;;15.50;6.07;;;;;;;;;;5081321;28;20485;-67
2023/05/01 03:10:49;;;;;;;9.20;5.63;;;;;;;;;;5080318;28;20507;-67
2023/05/01 03:13:15;;;;;;;8.43;5.60;;;;;;;;;;5080661;28;20471;-66
2023/05/01 03:15:42;;;;;;;9.37;6.23;;;;;;;;;;5081611;28;20471;-66
2023/05/01 03:18:10;;;;;;;7.33;5.63;;;;;;;;;;5085948;28;20476;-66
2023/05/01 03:20:37;;;;;;;9.10;6.13;;;;;;;;;;5079195;28;20911;-65
2023/05/01 03:23:03;;;;;;;10.03;5.93;;;;;;;;;;5080423;28;20468;-65
2023/05/01 03:25:29;;;;;;;9.20;6.00;;;;;;;;;;5079676;28;20487;-65
2023/05/01 03:27:56;;;;;;;9.87;6.57;;;;;;;;;;5080255;28;20488;-64
2023/05/01 03:30:22;;;;;;;8.80;5.77;;;;;;;;;;5082535;28;20858;-65
2023/05/01 03:32:49;;;;;;;8.20;5.97;;;;;;;;;;5084270;28;20474;-65
2023/05/01 03:35:16;;;;;;;10.80;6.27;;;;;;;;;;5079609;28;20479;-65
2023/05/01 03:37:43;;;;;;;8.37;5.83;;;;;;;;;;5083891;28;20534;-65
2023/05/01 03:40:11;;;;;;;8.70;5.40;;;;;;;;;;5081557;28;20538;-65
2023/05/01 03:42:37;;;;;;;9.63;6.40;;;;;;;;;;5080135;28;20466;-65
2023/05/01 03:45:04;;;;;;;8.43;5.83;;;;;;;;;;5080460;28;20535;-65
2023/05/01 03:47:31;;;;;;;14.33;6.20;;;;;;;;;;5080131;28;21034;-65
2023/05/01 03:49:57;;;;;;;8.30;5.20;;;;;;;;;;5082092;28;20484;-65
2023/05/01 03:52:25;;;;;;;10.10;5.90;;;;;;;;;;5084972;28;20540;-65
2023/05/01 03:54:52;;;;;;;9.80;6.03;;;;;;;;;;5087479;28;20452;-65
2023/05/01 03:57:19;;;;;;;6.80;5.80;;;;;;;;;;5083484;28;20479;-64
2023/05/01 03:59:46;;;;;;;8.37;6.20;;;;;;;;;;5084908;28;20542;-65
2023/05/01 04:02:12;;;;;;;8.20;5.43;;;;;;;;;;5068197;28;20488;-66
2023/05/01 04:04:38;;;;;;;6.10;5.50;;;;;;;;;;5080615;28;20515;-66
2023/05/01 04:07:05;;;;;;;12.47;5.67;;;;;;;;;;5082842;28;20547;-66
2023/05/01 04:09:33;;;;;;;8.00;5.30;;;;;;;;;;5080507;28;20511;-66
2023/05/01 04:12:01;;;;;;;6.07;4.87;;;;;;;;;;5078451;28;20583;-66
2023/05/01 04:14:27;;;;;;;11.40;5.60;;;;;;;;;;5080664;28;20440;-66
2023/05/01 04:16:54;;;;;;;7.87;5.97;;;;;;;;;;5079229;28;20511;-66
2023/05/01 04:19:20;;;;;;;7.93;6.00;;;;;;;;;;5079657;28;20460;-66
2023/05/01 04:21:46;;;;;;;9.33;5.27;;;;;;;;;;5079659;28;20895;-65
2023/05/01 04:24:13;;;;;;;11.37;6.03;;;;;;;;;;5080450;28;20479;-66
2023/05/01 04:26:41;;;;;;;6.70;4.70;;;;;;;;;;5082976;28;20478;-65
2023/05/01 04:29:08;;;;;;;7.80;5.20;;;;;;;;;;5079248;28;20448;-65
2023/05/01 04:31:34;;;;;;;9.10;5.80;;;;;;;;;;5079429;28;20551;-65
2023/05/01 04:34:01;;;;;;;6.63;4.77;;;;;;;;;;5079782;28;20444;-65
2023/05/01 04:36:28;;;;;;;7.60;4.70;;;;;;;;;;5082104;28;20506;-65
2023/05/01 04:38:54;;;;;;;8.50;5.20;;;;;;;;;;5079877;28;20463;-65
2023/05/01 04:41:21;;;;;;;5.40;4.60;;;;;;;;;;5087895;28;20587;-65
2023/05/01 04:43:49;;;;;;;9.80;6.27;;;;;;;;;;5081930;28;20465;-65
2023/05/01 04:46:16;;;;;;;7.43;5.13;;;;;;;;;;5078952;28;20545;-65
2023/05/01 04:48:42;;;;;;;6.90;4.90;;;;;;;;;;5087416;28;20452;-65
2023/05/01 04:51:08;;;;;;;7.67;5.33;;;;;;;;;;5082406;28;20484;-65
2023/05/01 04:53:35;;;;;;;7.77;5.60;;;;;;;;;;5080254;28;20913;-66
2023/05/01 04:56:01;;;;;;;8.80;5.90;;;;;;;;;;5092704;28;20552;-65
2023/05/01 04:58:28;;;;;;;6.70;6.00;;;;;;;;;;5083402;28;21334;-65
2023/05/01 05:00:56;;;;;;;9.10;5.57;;;;;;;;;;5082809;28;20467;-65
2023/05/01 05:03:22;;;;;;;7.23;5.50;;;;;;;;;;5087700;28;20477;-65
2023/05/01 05:05:48;;;;;;;7.00;5.60;;;;;;;;;;5082529;28;20502;-66
2023/05/01 05:08:15;;;;;;;6.13;4.97;;;;;;;;;;5083219;28;20443;-65
2023/05/01 05:10:41;;;;;;;5.50;5.00;;;;;;;;;;5090277;28;20491;-65
2023/05/01 05:13:08;;;;;;;4.97;4.47;;;;;;;;;;5087044;28;20485;-66
2023/05/01 05:15:35;;;;;;;5.80;4.23;;;;;;;;;;5082177;28;20988;-65
2023/05/01 05:18:02;;;;;;;5.87;4.30;;;;;;;;;;5084430;28;20512;-68
2023/05/01 05:20:29;;;;;;;5.50;4.60;;;;;;;;;;5082619;28;20509;-68
2023/05/01 05:22:55;;;;;;;5.60;4.53;;;;;;;;;;5082593;28;20448;-68
2023/05/01 05:25:22;;;;;;;4.60;4.17;;;;;;;;;;5082506;28;20452;-68
2023/05/01 05:27:48;;;;;;;5.73;4.70;;;;;;;;;;5082411;28;20539;-68
2023/05/01 05:30:15;;;;;;;5.10;4.10;;;;;;;;;;5082778;28;20483;-68
2023/05/01 05:32:41;;;;;;;9.03;4.80;;;;;;;;;;5083554;28;20546;-68
2023/05/01 05:35:09;;;;;;;7.97;5.13;;;;;;;;;;5083328;28;20491;-68
2023/05/01 05:37:36;;;;;;;6.53;4.60;;;;;;;;;;5081737;28;20488;-67
2023/05/01 05:40:02;;;;;;;5.63;5.00;;;;;;;;;;5079017;28;20891;-68
2023/05/01 05:42:30;;;;;;;6.07;4.10;;;;;;;;;;5081974;28;20916;-67
2023/05/01 05:44:56;;;;;;;5.10;4.23;;;;;;;;;;5083118;28;20482;-67
2023/05/01 05:47:22;;;;;;;6.60;4.87;;;;;;;;;;5081263;28;20559;-67
2023/05/01 05:49:49;;;;;;;9.70;5.23;;;;;;;;;;5081375;28;20495;-67
2023/05/01 05:52:17;;;;;;;9.77;5.10;;;;;;;;;;5082004;28;20521;-68
2023/05/01 05:54:43;;;;;;;11.47;4.50;;;;;;;;;;5082534;28;20448;-68
2023/05/01 05:57:10;;;;;;;5.07;3.40;;;;;;;;;;5085662;28;20503;-68
2023/05/01 05:59:37;;;;;;;7.07;4.60;;;;;;;;;;5082712;28;20475;-69
2023/05/01 06:02:03;;;;;;;6.47;4.63;;;;;;;;;;5082804;28;20510;-68
2023/05/01 06:04:30;;;;;;;9.37;4.97;;;;;;;;;;5087364;28;20451;-68
2023/05/01 06:06:56;;;;;;;6.70;4.87;;;;;;;;;;5081463;28;20476;-69
2023/05/01 06:09:25;;;;;;;8.83;4.63;;;;;;;;;;5082474;28;20474;-69
2023/05/01 06:11:51;;;;;;;6.10;5.23;;;;;;;;;;5080406;28;20479;-66
2023/05/01 06:14:18;;;;;;;5.57;4.93;;;;;;;;;;5081910;28;20487;-66
2023/05/01 06:16:44;;;;;;;6.90;4.80;;;;;;;;;;5080283;28;21225;-66
2023/05/01 06:19:11;;;;;;;8.27;5.10;;;;;;;;;;5089556;28;21086;-66
2023/05/01 06:21:37;;;;;;;6.77;5.07;;;;;;;;;;5087580;28;20476;-66
2023/05/01 06:24:05;;;;;;;8.83;5.13;;;;;;;;;;5085242;28;20444;-67
2023/05/01 06:26:32;;;;;;;11.60;4.67;;;;;;;;;;5079828;28;20509;-65
2023/05/01 06:28:59;;;;;;;6.73;4.77;;;;;;;;;;5077833;28;20517;-66
2023/05/01 06:31:25;;;;;;;7.23;4.73;;;;;;;;;;5083760;28;20576;-66
2023/05/01 06:33:52;;;;;;;7.80;5.53;;;;;;;;;;5081665;28;20448;-67
2023/05/01 06:36:18;;;;;;;6.30;4.33;;;;;;;;;;5081027;28;20480;-66
2023/05/01 06:38:47;;;;;;;7.60;5.20;;;;;;;;;;5081501;28;20479;-66
2023/05/01 06:41:14;;;;;;;10.83;5.10;;;;;;;;;;5080868;28;20542;-67
2023/05/01 06:43:41;;;;;;;7.70;5.30;;;;;;;;;;5081140;28;20480;-65
2023/05/01 06:46:08;;;;;;;7.07;4.73;;;;;;;;;;5079116;28;20503;-66
2023/05/01 06:48:34;;;;;;;6.00;5.40;;;;;;;;;;5081550;28;20486;-66
2023/05/01 06:51:01;;;;;;;6.23;4.70;;;;;;;;;;5080600;28;20484;-66
2023/05/01 06:53:27;;;;;;;7.80;5.27;;;;;;;;;;5080706;28;20443;-67
2023/05/01 06:55:54;;;;;;;8.70;4.83;;;;;;;;;;5086094;28;20493;-66
2023/05/01 06:58:20;;;;;;;11.07;4.83;;;;;;;;;;5085262;28;20488;-65
2023/05/01 07:00:48;;;;;;;8.90;5.67;;;;;;;;;;5079824;28;20499;-66
2023/05/01 07:03:15;;;;;;;6.60;4.53;;;;;;;;;;5074477;28;20901;-65
2023/05/01 07:05:41;;;;;;;8.60;5.20;;;;;;;;;;5079446;28;20476;-66
2023/05/01 07:08:09;;;;;;;8.37;4.47;;;;;;;;;;5081528;28;20444;-66
2023/05/01 07:10:35;;;;;;;6.27;4.00;;;;;;;;;;5077322;28;20472;-66
2023/05/01 07:13:02;;;;;;;9.13;5.10;;;;;;;;;;5073617;28;20459;-66
2023/05/01 07:15:28;;;;;;;5.67;4.50;;;;;;;;;;5065717;28;20534;-67
2023/05/01 07:17:57;;;;;;;7.60;4.70;;;;;;;;;;5070398;28;20520;-67
2023/05/01 07:20:23;;;;;;;7.70;4.90;;;;;;;;;;5062267;28;20464;-66
2023/05/01 07:22:50;;;;;;;7.10;4.80;;;;;;;;;;5081787;28;20662;-67
2023/05/01 07:25:16;;;;;;;7.20;5.03;;;;;;;;;;5080264;28;20439;-67
2023/05/01 07:27:43;;;;;;;11.87;4.83;;;;;;;;;;5081951;28;20475;-66
2023/05/01 07:30:10;;;;;;;5.70;4.80;;;;;;;;;;5082721;28;20463;-66
2023/05/01 07:32:36;;;;;;;5.93;4.53;;;;;;;;;;5083548;28;20485;-66
2023/05/01 07:35:04;;;;;;;5.90;4.57;;;;;;;;;;5078476;28;20481;-67
2023/05/01 07:37:31;;;;;;;6.67;3.93;;;;;;;;;;5064691;28;20550;-67
2023/05/01 07:39:58;;;;;;;6.20;4.83;;;;;;;;;;5052892;28;20489;-67
2023/05/01 07:42:25;;;;;;;7.30;4.87;;;;;;;;;;5078306;28;20474;-66
2023/05/01 07:44:51;;;;;;;5.90;4.90;;;;;;;;;;5080605;28;20448;-67
2023/05/01 07:47:18;;;;;;;8.93;4.83;;;;;;;;;;5081660;28;20483;-70
2023/05/01 07:49:44;;;;;;;5.77;5.03;;;;;;;;;;5079814;28;20448;-66
2023/05/01 07:52:12;;;;;;;6.43;4.30;;;;;;;;;;5081869;28;20503;-66
2023/05/01 07:54:38;;;;;;;5.33;4.07;;;;;;;;;;5080690;28;20490;-67
2023/05/01 07:57:06;;;;;;;8.27;4.37;;;;;;;;;;5079005;28;20475;-67
2023/05/01 07:59:32;;;;;;;8.50;4.80;;;;;;;;;;5080150;28;20853;-67
2023/05/01 08:01:58;;;;;;;9.40;4.80;;;;;;;;;;5079676;28;20510;-67
2023/05/01 08:04:25;;;;;;;6.00;4.67;;;;;;;;;;5080319;28;20940;-67
2023/05/01 08:06:51;;;;;;;8.43;4.90;;;;;;;;;;5079653;28;20498;-67
2023/05/01 08:09:19;;;;;;;6.17;4.87;;;;;;;;;;5076580;28;20522;-67
2023/05/01 08:11:46;;;;;;;8.17;4.87;;;;;;;;;;5080263;28;21067;-67
2023/05/01 08:14:12;;;;;;;9.37;5.07;;;;;;;;;;5085560;28;20879;-67
2023/05/01 08:16:38;;;;;;;7.10;4.60;;;;;;;;;;5078477;28;20488;-67
2023/05/01 08:19:05;;;;;;;8.03;4.60;;;;;;;;;;5085796;28;20459;-67
2023/05/01 08:21:31;;;;;;;4.97;4.20;;;;;;;;;;5079417;28;20513;-67
2023/05/01 08:23:58;;;;;;;7.97;4.10;;;;;;;;;;5076057;28;20505;-67
2023/05/01 08:26:26;;;;;;;5.03;4.20;;;;;;;;;;5073805;28;20480;-68
2023/05/01 08:28:52;;;;;;;7.73;4.20;;;;;;;;;;5071757;28;20494;-69
2023/05/01 08:31:19;;;;;;;5.13;4.40;;;;;;;;;;5072871;28;20489;-69
2023/05/01 08:33:46;;;;;;;7.30;5.13;;;;;;;;;;5068802;28;20455;-68
2023/05/01 08:36:12;;;;;;;5.23;4.60;;;;;;;;;;5079804;28;21082;-68
2023/05/01 08:38:39;;;;;;;9.10;4.17;;;;;;;;;;5081728;28;20447;-68
2023/05/01 08:41:06;;;;;;;5.27;4.10;;;;;;;;;;5081372;28;20559;-69
2023/05/01 08:43:34;;;;;;;6.13;4.70;;;;;;;;;;5082352;28;20452;-68
2023/05/01 08:46:01;;;;;;;5.90;4.20;;;;;;;;;;5082656;28;20518;-68
2023/05/01 08:48:28;;;;;;;8.83;4.53;;;;;;;;;;5083006;28;20444;-67
2023/05/01 08:50:55;;;;;;;4.20;3.73;;;;;;;;;;5081287;28;20479;-67
2023/05/01 08:53:23;;;;;;;6.40;3.90;;;;;;;;;;5066841;28;20486;-67
2023/05/01 08:55:52;;;;;;;6.40;4.00;;;;;;;;;;5069148;28;20786;-67
2023/05/01 08:58:19;;;;;;;5.23;4.10;;;;;;;;;;5067200;28;20483;-67
2023/05/01 09:00:47;;;;;;;5.70;3.87;;;;;;;;;;5074562;28;20486;-67
2023/05/01 09:03:13;;;;;;;8.57;4.23;;;;;;;;;;5087239;28;20528;-67
2023/05/01 09:05:40;;;;;;;5.13;3.77;;;;;;;;;;5078470;28;20471;-68
2023/05/01 09:08:07;;;;;;;6.07;3.93;;;;;;;;;;5081415;28;20439;-67
2023/05/01 09:10:33;;;;;;;6.07;4.67;;;;;;;;;;5084812;28;20579;-67
2023/05/01 09:13:01;;;;;;;8.27;4.53;;;;;;;;;;5086935;28;20953;-64
2023/05/01 09:15:28;;;;;;;7.93;4.20;;;;;;;;;;5089814;28;21118;-64
2023/05/01 09:17:56;;;;;;;8.13;4.20;;;;;;;;;;5080975;28;20486;-65
2023/05/01 09:20:23;;;;;;;6.33;4.00;;;;;;;;;;5084099;28;20960;-65
2023/05/01 09:22:50;;;;;;;5.20;3.80;;;;;;;;;;5091328;28;20763;-64
2023/05/01 09:25:17;;;;;;;7.60;3.80;;;;;;;;;;5080925;28;20466;-64
2023/05/01 09:27:44;;;;;;;7.23;4.20;;;;;;;;;;5078974;28;20467;-64
2023/05/01 09:30:10;;;;;;;6.00;3.30;;;;;;;;;;5080382;28;20607;-64
2023/05/01 09:32:37;;;;;;;4.50;3.43;;;;;;;;;;5081994;28;20509;-64
2023/05/01 09:35:12;;;;;;;5.57;3.53;;;;;;;;;;5079045;28;20468;-65
2023/05/01 09:37:38;;;;;;;9.20;3.97;;;;;;;;;;5077440;28;20510;-64
2023/05/01 09:40:06;;;;;;;7.03;3.70;;;;;;;;;;5077415;28;20497;-65
2023/05/01 09:42:33;;;;;;;4.53;3.23;;;;;;;;;;5074500;28;20869;-64
2023/05/01 09:45:00;;;;;;;7.00;3.23;;;;;;;;;;5081483;28;20523;-64
2023/05/01 09:47:27;;;;;;;4.20;3.10;;;;;;;;;;5063996;28;20556;-65
2023/05/01 09:49:55;;;;;;;8.47;3.30;;;;;;;;;;5054204;28;20473;-65
2023/05/01 09:52:25;;;;;;;4.57;2.97;;;;;;;;;;5076114;28;20752;-64
2023/05/01 09:55:11;;;;;;;4.27;2.67;;;;;;;;;;5077003;28;20896;-65
2023/05/01 09:57:37;;;;;;;3.93;2.47;;;;;;;;;;5072721;28;20491;-65
2023/05/01 10:00:07;;;;;;;4.23;2.90;;;;;;;;;;5079170;28;20558;-64
2023/05/01 10:02:34;;;;;;;3.83;2.40;;;;;;;;;;5083398;28;20468;-64
2023/05/01 10:05:00;;;;;;;4.13;3.00;;;;;;;;;;5078619;28;20988;-65
2023/05/01 10:07:29;;;;;;;3.80;2.80;;;;;;;;;;5060191;28;20527;-65
2023/05/01 10:09:55;;;;;;;3.67;2.23;;;;;;;;;;5056162;28;20492;-65
2023/05/01 10:12:25;;;;;;;3.10;2.63;;;;;;;;;;5078097;28;20486;-64
2023/05/01 10:14:52;;;;;;;3.80;2.77;;;;;;;;;;5080903;28;20467;-63
2023/05/01 10:17:19;;;;;;;4.27;2.60;;;;;;;;;;5088350;28;20488;-64
2023/05/01 10:19:46;;;;;;;5.80;2.97;;;;;;;;;;5084903;28;20456;-65
2023/05/01 10:22:13;;;;;;;4.00;2.87;;;;;;;;;;5080285;28;20475;-65
2023/05/01 10:24:42;;;;;;;4.10;2.50;;;;;;;;;;5089278;28;20489;-65
2023/05/01 10:27:09;;;;;;;4.13;2.83;;;;;;;;;;5069918;28;20555;-65
2023/05/01 10:29:36;;;;;;;3.27;2.37;;;;;;;;;;5080410;28;20467;-65
2023/05/01 10:32:04;;;;;;;3.63;2.53;;;;;;;;;;5080854;28;20503;-66
2023/05/01 10:34:32;;;;;;;5.70;2.03;;;;;;;;;;5080521;28;20456;-65
2023/05/01 10:37:00;;;;;;;5.63;2.73;;;;;;;;;;5079390;28;20498;-65
2023/05/01 10:39:30;;;;;;;4.77;2.80;;;;;;;;;;5084158;28;20459;-65
2023/05/01 10:42:05;;;;;;;6.43;2.30;;;;;;;;;;5080743;28;20483;-64
2023/05/01 10:44:33;;;;;;;3.43;2.40;;;;;;;;;;5081098;28;20463;-64
2023/05/01 10:46:59;;;;;;;6.10;2.80;;;;;;;;;;5080565;28;20720;-64
2023/05/01 10:49:46;;;;;;;4.00;2.50;;;;;;;;;;5079494;28;20525;-64
2023/05/01 10:52:14;;;;;;;4.20;2.13;;;;;;;;;;5079386;28;20551;-64
2023/05/01 10:54:41;;;;;;;3.10;2.63;;;;;;;;;;5085006;28;20478;-65
2023/05/01 10:57:08;;;;;;;2.40;2.20;;;;;;;;;;5071031;28;20519;-65
2023/05/01 10:59:50;;;;;;;4.57;2.20;;;;;;;;;;5082253;28;20501;-64
2023/05/01 11:02:22;;;;;;;2.70;2.30;;;;;;;;;;5083994;28;20479;-65
2023/05/01 11:04:49;;;;;;;4.10;2.40;;;;;;;;;;5079030;28;20448;-64
2023/05/01 11:07:19;;;;;;;3.90;2.80;;;;;;;;;;5079051;28;20487;-64
2023/05/01 11:09:47;;;;;;;3.30;2.37;;;;;;;;;;5077013;28;20852;-64
2023/05/01 11:12:16;;;;;;;3.60;1.83;;;;;;;;;;5077582;28;20851;-64
2023/05/01 11:15:02;;;;;;;3.63;2.43;;;;;;;;;;5080420;28;20518;-64
2023/05/01 11:17:48;;;;;;;4.10;2.50;;;;;;;;;;5076488;28;20482;-64
2023/05/01 11:20:29;;;;;;;3.10;2.43;;;;;;;;;;5078427;28;20543;-64
2023/05/01 11:22:56;;;;;;;4.33;2.47;;;;;;;;;;5076797;28;20452;-64
2023/05/01 11:25:26;;;;;;;3.77;2.33;;;;;;;;;;5077122;28;20478;-64
2023/05/01 11:27:54;;;;;;;5.90;2.50;;;;;;;;;;5075708;28;20498;-64
2023/05/01 11:30:21;;;;;;;3.73;2.60;;;;;;;;;;5078401;28;20900;-65
2023/05/01 11:32:48;;;;;;;2.87;2.13;;;;;;;;;;5078027;28;20502;-64
2023/05/01 11:35:16;;;;;;;3.40;2.60;;;;;;;;;;5078837;28;20539;-64
2023/05/01 11:37:44;;;;;;;2.73;1.87;;;;;;;;;;5080003;28;20472;-64
2023/05/01 11:40:19;;;;;;;4.30;2.10;;;;;;;;;;5079064;28;20485;-64
2023/05/01 11:42:45;;;;;;;2.30;1.80;;;;;;;;;;5079884;28;20459;-64
2023/05/01 11:45:14;;;;;;;5.57;1.70;;;;;;;;;;5077982;28;20449;-64
2023/05/01 11:47:41;;;;;;;2.20;1.80;;;;;;;;;;5078721;28;20471;-64
2023/05/01 11:50:08;;;;;;;3.40;2.30;;;;;;;;;;5078166;28;20499;-64
2023/05/01 11:52:42;;;;;;;2.70;2.00;;;;;;;;;;5081444;28;20467;-65
2023/05/01 11:55:09;;;;;;;2.20;2.00;;;;;;;;;;5084765;28;20444;-63
2023/05/01 11:57:44;;;;;;;3.90;2.00;;;;;;;;;;5076713;28;20495;-63
2023/05/01 12:00:12;;;;;;;4.00;1.93;;;;;;;;;;5078908;28;20454;-66
2023/05/01 12:02:39;;;;;;;2.73;2.00;;;;;;;;;;5080758;28;20463;-64
2023/05/01 12:05:16;;;;;;;3.60;1.87;;;;;;;;;;5078319;28;20553;-63
2023/05/01 12:07:42;;;;;;;3.67;2.27;;;;;;;;;;5078400;28;20474;-64
2023/05/01 12:10:09;;;;;;;3.63;2.20;;;;;;;;;;5078709;28;20456;-64
2023/05/01 12:12:36;;;;;;;2.83;2.30;;;;;;;;;;5077531;28;20480;-64
2023/05/01 12:15:02;;;;;;;3.20;2.10;;;;;;;;;;5077397;28;20515;-65
2023/05/01 12:17:29;;;;;;;3.47;2.20;;;;;;;;;;5078643;28;21279;-64
2023/05/01 12:19:57;;;;;;;2.80;1.87;;;;;;;;;;5078939;28;20519;-64
2023/05/01 12:22:25;;;;;;;3.40;1.70;;;;;;;;;;5076640;28;20534;-64
2023/05/01 12:24:52;;;;;;;3.00;1.93;;;;;;;;;;5080051;28;20509;-64
2023/05/01 12:27:19;;;;;;;2.80;1.90;;;;;;;;;;5078201;28;20490;-64
2023/05/01 12:29:47;;;;;;;3.40;1.90;;;;;;;;;;5078861;28;20460;-64
2023/05/01 12:32:13;;;;;;;3.10;1.97;;;;;;;;;;5082984;28;20482;-64
2023/05/01 12:34:40;;;;;;;2.00;1.60;;;;;;;;;;5079749;28;20620;-64
2023/05/01 12:37:08;;;;;;;5.10;2.27;;;;;;;;;;5078359;28;20499;-64
2023/05/01 12:39:38;;;;;;;2.53;2.00;;;;;;;;;;5087564;28;20598;-64
2023/05/01 12:42:11;;;;;;;4.43;2.33;;;;;;;;;;5078530;28;20533;-64
2023/05/01 12:44:38;;;;;;;2.17;1.87;;;;;;;;;;5083020;28;20520;-64
2023/05/01 12:47:06;;;;;;;3.20;2.20;;;;;;;;;;5078740;28;20521;-64
2023/05/01 12:49:32;;;;;;;3.37;2.10;;;;;;;;;;5077542;28;20484;-63
2023/05/01 12:51:59;;;;;;;3.07;2.20;;;;;;;;;;5079070;28;20487;-63
2023/05/01 12:54:29;;;;;;;3.37;2.00;;;;;;;;;;5078771;28;20484;-64
2023/05/01 12:57:05;;;;;;;3.00;2.07;;;;;;;;;;5077806;28;20848;-63
2023/05/01 12:59:32;;;;;;;2.37;1.90;;;;;;;;;;5078396;28;20483;-63
2023/05/01 13:01:59;;;;;;;2.53;1.80;;;;;;;;;;5078638;28;20476;-63
2023/05/01 13:04:26;;;;;;;2.27;1.80;;;;;;;;;;5075700;28;20471;-64
2023/05/01 13:06:54;;;;;;;2.30;1.90;;;;;;;;;;5078648;28;20472;-64
2023/05/01 13:09:21;;;;;;;3.70;1.60;;;;;;;;;;5080997;28;20448;-64
2023/05/01 13:11:57;;;;;;;2.63;1.80;;;;;;;;;;5078047;28;20475;-64
2023/05/01 13:14:24;;;;;;;4.23;1.87;;;;;;;;;;5079756;28;20593;-64
2023/05/01 13:16:51;;;;;;;5.73;2.00;;;;;;;;;;5078976;28;20468;-64
2023/05/01 13:19:25;;;;;;;3.13;2.20;;;;;;;;;;5083190;28;20510;-64
2023/05/01 13:21:51;;;;;;;2.40;1.90;;;;;;;;;;5083447;28;20918;-64
2023/05/01 13:24:19;;;;;;;1.70;1.40;;;;;;;;;;5075149;28;20468;-63
2023/05/01 13:26:45;;;;;;;3.10;1.73;;;;;;;;;;5080875;28;20475;-64
2023/05/01 13:29:15;;;;;;;2.80;1.67;;;;;;;;;;5083418;28;20460;-65
2023/05/01 13:31:42;;;;;;;2.80;1.70;;;;;;;;;;5082882;28;20543;-64
2023/05/01 13:34:09;;;;;;;3.57;2.20;;;;;;;;;;5082223;28;20480;-64
2023/05/01 13:36:35;;;;;;;2.20;1.50;;;;;;;;;;5082831;28;20499;-64
2023/05/01 13:39:02;;;;;;;2.90;1.87;;;;;;;;;;5082095;28;20506;-63
2023/05/01 13:41:29;;;;;;;2.70;1.30;;;;;;;;;;5081480;28;20497;-63
2023/05/01 13:43:56;;;;;;;2.30;1.30;;;;;;;;;;5086737;28;20551;-64
2023/05/01 13:46:25;;;;;;;3.97;1.23;;;;;;;;;;5081782;28;21083;-64
2023/05/01 13:48:52;;;;;;;1.80;1.40;;;;;;;;;;5081288;28;20515;-64
2023/05/01 13:51:20;;;;;;;2.87;1.17;;;;;;;;;;5080558;28;20475;-64
2023/05/01 13:53:47;;;;;;;1.57;1.20;;;;;;;;;;5082263;28;20539;-65
2023/05/01 13:56:14;;;;;;;1.53;1.20;;;;;;;;;;5085188;28;20538;-65
2023/05/01 13:58:40;;;;;;;1.37;0.83;;;;;;;;;;5081544;28;20483;-64
2023/05/01 14:01:13;;;;;;;1.23;1.00;;;;;;;;;;5088831;28;20889;-64
2023/05/01 14:03:41;;;;;;;1.90;1.00;;;;;;;;;;5081210;28;20460;-64
2023/05/01 14:06:09;;;;;;;1.53;1.07;;;;;;;;;;5082002;28;20514;-64
2023/05/01 14:08:35;;;;;;;1.33;1.03;;;;;;;;;;5076959;28;20463;-64
2023/05/01 14:11:04;;;;;;;1.73;1.27;;;;;;;;;;5081044;28;20492;-64
2023/05/01 14:13:30;;;;;;;2.03;1.20;;;;;;;;;;5080830;28;20470;-64
2023/05/01 14:15:57;;;;;;;1.83;1.03;;;;;;;;;;5074111;28;20475;-64
2023/05/01 14:18:23;;;;;;;2.03;1.50;;;;;;;;;;5081623;28;21058;-64
2023/05/01 14:20:51;;;;;;;2.30;1.30;;;;;;;;;;5079337;28;20622;-64
2023/05/01 14:23:19;;;;;;;2.23;1.17;;;;;;;;;;5080765;28;20663;-64
2023/05/01 14:25:48;;;;;;;1.60;1.20;;;;;;;;;;5083858;28;20541;-64
2023/05/01 14:28:14;;;;;;;1.83;1.17;;;;;;;;;;5080408;28;20467;-64
2023/05/01 14:30:41;;;;;;;2.27;1.57;;;;;;;;;;5080091;28;20472;-64
2023/05/01 14:33:08;;;;;;;2.17;1.20;;;;;;;;;;5087049;28;20444;-63
2023/05/01 14:35:35;;;;;;;3.70;1.10;;;;;;;;;;5080369;28;20612;-64
2023/05/01 14:38:07;;;;;;;1.30;1.00;;;;;;;;;;5080842;28;20440;-64
2023/05/01 14:40:33;;;;;;;1.60;1.07;;;;;;;;;;5074586;28;20468;-64
2023/05/01 14:43:00;;;;;;;2.00;1.33;;;;;;;;;;5081529;28;20460;-65